Main page
METAR-TAF:

METAR-TAF

Airports :

Tekamah Municipal Airport

Tekamah, Nebraska, United States

latitude: 41-46-01N, longitude: 096-10-40W, elevation: 1027 ft

Current weather observation

The report was made 1 hour and 1 minutes ago, at 20:54 UTC
Wind 12 mph from the West/Southwest
Temperature 52°F
Humidity 40%
Pressure 29.86 in. Hg
Visibility: 10 miles
Clear sky

METAR: KTQE 162054Z AUTO 25010KT 10SM CLR 11/M02 A2986 RMK AO2 SLP114 T01111022 56025 $

Time: 15:55 (21:55 UTC)


TAF: missing

Weather observations and forecasts of more than 4000 airports (METAR and TAF reports).

The available stations are represented by yellow and red dots on the map.

Hover mouse over dot to see the name of the station.

Then click to see weather observations and forecasts.

To change the map : click on the green buttons with a black cross to zoom in, on the green button with a dash to zoom out, or on the green arrows for adjacent maps.


METAR-TAF: